Time;durP1;ratioP1;P1;durP2;ratioP2;P2;SDS_P1;SDS_P2;PMS_P1;PMS_P2;Temp;Humidity;BMP_temperature;BMP_pressure;BME280_temperature;BME280_humidity;BME280_pressure;Samples;Min_cycle;Max_cycle;Signal;HPM_P1;HPM_P2
2021/09/14 00:00:57;;;;;;;4.97;4.50;;;;;;;14.08;83.12;100694.50;5003844;28;20247;-75
2021/09/14 00:03:23;;;;;;;6.30;4.17;;;;;;;14.05;82.64;100699.84;5004238;28;20209;-77
2021/09/14 00:05:50;;;;;;;4.73;4.33;;;;;;;14.02;82.71;100697.31;5003991;28;20297;-78
2021/09/14 00:08:17;;;;;;;5.43;5.03;;;;;;;13.99;82.80;100693.91;5004629;28;21151;-78
2021/09/14 00:10:44;;;;;;;5.30;4.80;;;;;;;13.98;82.75;100705.31;5004084;28;20695;-78
2021/09/14 00:13:10;;;;;;;5.07;4.67;;;;;;;13.95;82.55;100706.25;5004131;28;20776;-78
2021/09/14 00:15:37;;;;;;;6.53;6.03;;;;;;;13.96;83.04;100692.22;5004728;28;20221;-77
2021/09/14 00:18:04;;;;;;;7.73;5.87;;;;;;;13.89;83.37;100688.94;5004460;28;20277;-78
2021/09/14 00:20:31;;;;;;;9.40;5.17;;;;;;;13.92;83.30;100697.63;5003674;28;20333;-77
2021/09/14 00:22:57;;;;;;;5.60;5.00;;;;;;;13.66;83.49;100686.09;5004153;28;20241;-78
2021/09/14 00:25:25;;;;;;;5.83;5.33;;;;;;;13.58;84.67;100649.59;5004514;28;20208;-78
2021/09/14 00:27:51;;;;;;;5.70;5.10;;;;;;;13.54;84.88;100634.84;5004537;28;20225;-77
2021/09/14 00:30:17;;;;;;;7.93;5.40;;;;;;;13.56;85.17;100625.16;5004173;28;20210;-77
2021/09/14 00:32:44;;;;;;;4.40;4.00;;;;;;;13.57;85.07;100615.53;5004355;28;20233;-76
2021/09/14 00:35:11;;;;;;;6.87;4.13;;;;;;;13.57;83.94;100645.22;5004036;28;20208;-77
2021/09/14 00:37:37;;;;;;;3.97;3.77;;;;;;;13.60;83.65;100671.38;5004117;28;20212;-80
2021/09/14 00:40:05;;;;;;;4.70;3.63;;;;;;;13.53;83.42;100675.06;5003739;28;20639;-77
2021/09/14 00:42:32;;;;;;;10.47;4.93;;;;;;;13.55;83.40;100683.75;5003105;28;20321;-77
2021/09/14 00:44:59;;;;;;;3.90;3.60;;;;;;;13.36;84.02;100669.41;5004352;28;20271;-77
2021/09/14 00:47:25;;;;;;;5.20;4.13;;;;;;;13.39;84.46;100648.38;5003689;28;20232;-78
2021/09/14 00:49:51;;;;;;;4.97;3.80;;;;;;;13.44;85.59;100605.38;5003861;28;20214;-78
2021/09/14 00:52:18;;;;;;;3.93;3.63;;;;;;;13.53;86.64;100562.28;5003428;28;20237;-77
2021/09/14 00:54:45;;;;;;;4.17;3.57;;;;;;;13.45;86.76;100556.41;5003426;28;20217;-78
2021/09/14 00:57:11;;;;;;;11.93;3.80;;;;;;;13.50;85.17;100588.63;5003819;28;20209;-75
2021/09/14 00:59:39;;;;;;;4.53;4.13;;;;;;;13.49;84.67;100620.97;5003567;28;20211;-77
2021/09/14 01:02:06;;;;;;;4.70;4.30;;;;;;;13.50;85.84;100599.13;5002688;28;20225;-77
2021/09/14 01:04:32;;;;;;;4.47;4.07;;;;;;;13.46;85.25;100602.72;5002830;28;20228;-78
2021/09/14 01:06:58;;;;;;;6.60;4.07;;;;;;;13.42;85.82;100593.19;5003510;28;20267;-78
2021/09/14 01:09:26;;;;;;;4.83;3.80;;;;;;;13.40;84.65;100614.25;5003275;28;20510;-76
2021/09/14 01:11:54;;;;;;;4.57;4.17;;;;;;;13.42;84.87;100617.69;5003272;28;20314;-76
2021/09/14 01:14:20;;;;;;;4.57;4.10;;;;;;;13.39;85.04;100595.94;5003257;28;20262;-74
2021/09/14 01:16:48;;;;;;;7.93;3.93;;;;;;;13.39;85.67;100585.44;5003014;28;20219;-79
2021/09/14 01:19:14;;;;;;;5.67;4.67;;;;;;;13.34;85.89;100577.72;5003615;28;20267;-77
2021/09/14 01:21:41;;;;;;;5.27;4.10;;;;;;;13.31;85.39;100583.03;5002612;28;20234;-75
2021/09/14 01:24:09;;;;;;;4.73;4.30;;;;;;;13.28;85.29;100590.97;5002976;28;20749;-78
2021/09/14 01:26:36;;;;;;;8.57;4.00;;;;;;;13.24;85.26;100589.31;5003101;28;20225;-79
2021/09/14 01:29:09;;;;;;;7.20;4.73;;;;;;;13.30;85.34;100581.31;5003237;28;20798;-78
2021/09/14 01:31:36;;;;;;;8.47;4.33;;;;;;;13.29;85.72;100590.94;5001859;28;20730;-78
2021/09/14 01:34:03;;;;;;;6.63;4.83;;;;;;;13.24;86.15;100576.19;5002335;28;20205;-76
2021/09/14 01:36:29;;;;;;;5.80;4.33;;;;;;;13.20;86.86;100546.63;5002176;28;20213;-75
2021/09/14 01:38:55;;;;;;;4.80;4.40;;;;;;;13.21;85.75;100579.78;5001933;28;20202;-78
2021/09/14 01:41:23;;;;;;;4.67;4.27;;;;;;;13.25;84.95;100605.00;5001484;28;20294;-77
2021/09/14 01:43:51;;;;;;;4.50;4.10;;;;;;;13.18;84.75;100605.19;5001131;28;20274;-76
2021/09/14 01:46:17;;;;;;;4.80;3.80;;;;;;;13.12;84.38;100614.09;5001760;28;20208;-76
2021/09/14 01:48:44;;;;;;;3.53;3.23;;;;;;;13.16;85.15;100609.63;5001963;28;20586;-77
2021/09/14 01:51:10;;;;;;;3.97;3.60;;;;;;;13.17;84.76;100600.88;5001141;28;20219;-77
2021/09/14 01:53:36;;;;;;;4.60;3.90;;;;;;;13.10;85.08;100602.78;5001150;28;20690;-76
2021/09/14 01:56:05;;;;;;;9.37;4.63;;;;;;;12.99;84.76;100603.06;5001775;28;20702;-78
2021/09/14 01:58:33;;;;;;;5.10;4.70;;;;;;;12.96;84.94;100586.56;5001530;28;20216;-78
2021/09/14 02:01:04;;;;;;;4.50;4.00;;;;;;;12.95;84.88;100585.72;5000906;28;20200;-78
2021/09/14 02:03:36;;;;;;;3.77;3.50;;;;;;;12.99;84.59;100613.56;5001449;28;20217;-77
2021/09/14 02:09:00;;;;;;;5.70;3.93;;;;;;;12.84;85.82;100574.66;5003627;28;20222;-77
2021/09/14 02:33:53;;;;;;;5.33;3.83;;;;;;;12.73;84.58;100579.34;5008379;28;20228;-76
2021/09/14 02:44:58;;;;;;;3.63;3.33;;;;;;;12.76;85.00;100563.50;5007624;28;20219;-75
2021/09/14 02:58:40;;;;;;;4.80;4.40;;;;;;;12.76;85.52;100563.50;5007725;28;20208;-77
2021/09/14 03:01:07;;;;;;;9.60;4.47;;;;;;;12.72;86.00;100552.25;5007478;28;20240;-77
2021/09/14 03:03:35;;;;;;;5.77;4.60;;;;;;;12.69;86.50;100531.41;5007361;28;20203;-78
2021/09/14 03:06:02;;;;;;;4.93;4.33;;;;;;;12.67;86.38;100523.56;5007320;28;20208;-78
2021/09/14 03:08:28;;;;;;;5.07;4.37;;;;;;;12.68;86.38;100542.75;5007214;28;20259;-77
2021/09/14 03:10:55;;;;;;;4.50;4.10;;;;;;;12.74;85.74;100554.84;5007334;28;20683;-77
2021/09/14 03:13:21;;;;;;;4.53;4.13;;;;;;;12.53;86.20;100557.13;5007578;28;20753;-78
2021/09/14 03:15:48;;;;;;;6.50;3.97;;;;;;;12.57;86.29;100544.81;5007817;28;20204;-78
2021/09/14 03:18:14;;;;;;;4.33;3.93;;;;;;;12.52;86.12;100545.75;5007792;28;20204;-75
2021/09/14 03:20:42;;;;;;;4.40;4.10;;;;;;;12.59;85.76;100561.34;5004451;28;20371;-77
2021/09/14 03:23:08;;;;;;;11.43;4.67;;;;;;;12.63;85.79;100555.13;5004682;28;20857;-78
2021/09/14 03:25:34;;;;;;;4.20;3.80;;;;;;;12.53;85.83;100557.13;5005297;28;20212;-77
2021/09/14 03:28:01;;;;;;;4.77;3.80;;;;;;;12.52;86.35;100553.63;5005389;28;20275;-78
2021/09/14 03:30:27;;;;;;;7.13;4.40;;;;;;;12.59;86.24;100536.00;5005426;28;20208;-78
2021/09/14 03:32:53;;;;;;;4.37;3.97;;;;;;;12.54;85.36;100566.69;5005433;28;20285;-74
2021/09/14 03:35:20;;;;;;;4.73;4.33;;;;;;;12.53;85.34;100580.69;5005235;28;20259;-79
2021/09/14 03:37:47;;;;;;;4.83;4.47;;;;;;;12.53;84.21;100599.00;5005056;28;20201;-78
2021/09/14 03:40:14;;;;;;;4.80;4.10;;;;;;;12.49;84.22;100605.22;5004969;28;20213;-77
2021/09/14 03:42:40;;;;;;;3.47;3.00;;;;;;;12.54;83.75;100607.72;5004327;28;20220;-78
2021/09/14 03:45:07;;;;;;;3.47;3.23;;;;;;;12.47;84.26;100610.50;5004964;28;20714;-77
2021/09/14 03:47:34;;;;;;;3.80;3.47;;;;;;;12.38;83.98;100597.59;5005205;28;20262;-75
2021/09/14 03:50:00;;;;;;;3.20;2.97;;;;;;;12.31;84.76;100585.59;5004287;28;20212;-78
2021/09/14 03:52:26;;;;;;;3.03;2.67;;;;;;;12.34;83.97;100600.34;5005045;28;20238;-77
2021/09/14 03:54:54;;;;;;;5.87;3.57;;;;;;;12.25;84.14;100593.56;5004382;28;20270;-77
2021/09/14 03:57:20;;;;;;;5.67;2.80;;;;;;;12.19;84.46;100594.59;5005153;28;20211;-78
2021/09/14 03:59:47;;;;;;;4.50;2.87;;;;;;;12.22;84.67;100584.03;5004422;28;20270;-77
2021/09/14 04:02:17;;;;;;;3.47;2.50;;;;;;;12.19;83.76;100601.56;5003982;28;20227;-75
2021/09/14 04:05:02;;;;;;;3.10;2.80;;;;;;;12.23;83.62;100611.06;5003903;28;20227;-76
2021/09/14 04:07:38;;;;;;;5.53;2.70;;;;;;;12.07;83.50;100608.81;5004191;28;20665;-76
2021/09/14 04:10:08;;;;;;;2.57;2.30;;;;;;;12.04;83.86;100619.31;5004507;28;20218;-78
2021/09/14 04:12:34;;;;;;;2.53;2.00;;;;;;;12.08;83.57;100620.97;5004410;28;20238;-77
2021/09/14 04:15:00;;;;;;;2.13;1.80;;;;;;;12.03;83.65;100617.63;5004678;28;20209;-78
2021/09/14 04:17:27;;;;;;;2.83;2.20;;;;;;;12.01;83.90;100610.69;5004469;28;20219;-78
2021/09/14 04:19:53;;;;;;;4.53;1.90;;;;;;;11.91;84.54;100579.50;5003827;28;20204;-77
2021/09/14 04:22:19;;;;;;;5.57;3.10;;;;;;;11.84;85.30;100570.03;5003676;28;20229;-78
2021/09/14 04:24:46;;;;;;;3.00;2.80;;;;;;;11.78;85.37;100545.78;5004153;28;20220;-77
2021/09/14 04:27:14;;;;;;;2.63;2.43;;;;;;;11.78;84.67;100562.31;5003966;28;20203;-77
2021/09/14 04:29:41;;;;;;;3.27;2.97;;;;;;;11.80;84.60;100589.31;5003798;28;20240;-77
2021/09/14 04:32:08;;;;;;;3.13;2.80;;;;;;;11.78;84.41;100592.84;5003898;28;20729;-75
2021/09/14 04:34:34;;;;;;;7.97;3.00;;;;;;;11.73;85.07;100570.28;5003891;28;20681;-78
2021/09/14 04:37:00;;;;;;;6.60;2.50;;;;;;;11.72;85.31;100573.78;5003954;28;20277;-77
2021/09/14 04:39:27;;;;;;;3.93;2.47;;;;;;;11.77;85.03;100573.66;5003644;28;20825;-76
2021/09/14 04:41:53;;;;;;;2.50;2.30;;;;;;;11.83;84.74;100570.94;5003740;28;20279;-79
2021/09/14 04:44:21;;;;;;;2.40;2.20;;;;;;;11.86;84.69;100581.31;5004137;28;20278;-78
2021/09/14 04:46:47;;;;;;;2.93;2.73;;;;;;;11.72;84.89;100588.63;5002878;28;20212;-76
2021/09/14 04:49:13;;;;;;;2.87;2.60;;;;;;;11.62;85.75;100551.34;5003115;28;20204;-77
2021/09/14 04:51:40;;;;;;;3.17;2.87;;;;;;;11.61;84.91;100552.22;5003592;28;20305;-76
2021/09/14 04:54:06;;;;;;;4.80;3.20;;;;;;;11.61;84.59;100567.91;5003718;28;20288;-75
2021/09/14 04:56:32;;;;;;;3.10;2.80;;;;;;;11.61;84.36;100578.34;5003931;28;20204;-78
2021/09/14 04:58:59;;;;;;;6.30;3.60;;;;;;;11.55;84.67;100581.09;5003745;28;20245;-78
2021/09/14 05:01:26;;;;;;;4.17;3.10;;;;;;;11.55;84.82;100572.41;5004031;28;20300;-77
2021/09/14 05:03:53;;;;;;;3.87;3.43;;;;;;;11.58;85.04;100559.28;5003346;28;20689;-78
2021/09/14 05:06:19;;;;;;;3.93;3.23;;;;;;;11.55;84.94;100559.34;5004086;28;20216;-77
2021/09/14 05:08:45;;;;;;;5.53;3.17;;;;;;;11.50;85.00;100560.31;5003124;28;20207;-76
2021/09/14 05:11:13;;;;;;;3.07;2.57;;;;;;;11.49;85.07;100550.72;5003473;28;20262;-76
2021/09/14 05:13:40;;;;;;;3.03;2.73;;;;;;;11.54;85.11;100558.50;5003224;28;20228;-77
2021/09/14 05:16:06;;;;;;;9.23;3.20;;;;;;;11.52;85.83;100545.44;5003102;28;20208;-76
2021/09/14 05:18:34;;;;;;;3.60;2.80;;;;;;;11.63;85.34;100547.81;5003743;28;20240;-76
2021/09/14 05:21:00;;;;;;;6.60;4.37;;;;;;;11.66;85.26;100552.13;5002953;28;20680;-78
2021/09/14 05:23:31;;;;;;;4.13;3.20;;;;;;;11.68;84.89;100540.75;5003111;28;20212;-78
2021/09/14 05:25:59;;;;;;;6.73;3.50;;;;;;;11.70;85.62;100543.34;5002976;28;20210;-77
2021/09/14 05:28:25;;;;;;;5.13;3.60;;;;;;;11.70;85.45;100536.34;5002946;28;20220;-78
2021/09/14 05:30:52;;;;;;;10.07;3.97;;;;;;;11.69;85.83;100528.53;5002449;28;20287;-77
2021/09/14 05:33:19;;;;;;;3.77;3.40;;;;;;;11.69;85.62;100533.75;5002554;28;20740;-77
2021/09/14 05:35:49;;;;;;;3.83;3.53;;;;;;;11.65;85.16;100532.09;5003298;28;20203;-76
2021/09/14 05:38:16;;;;;;;3.53;3.23;;;;;;;11.72;85.46;100544.16;5002810;28;20259;-76
2021/09/14 05:40:44;;;;;;;3.17;2.97;;;;;;;11.64;85.59;100525.16;5001880;28;20209;-75
2021/09/14 05:43:10;;;;;;;3.07;2.87;;;;;;;11.65;86.14;100519.03;5001495;28;20235;-77
2021/09/14 05:45:37;;;;;;;3.90;3.00;;;;;;;11.66;86.24;100510.31;5003621;28;20211;-78
2021/09/14 05:48:04;;;;;;;3.63;3.23;;;;;;;11.63;86.80;100497.28;5003031;28;20211;-76
2021/09/14 05:50:30;;;;;;;3.73;2.80;;;;;;;11.70;85.61;100518.03;5003066;28;20617;-76
2021/09/14 05:52:58;;;;;;;3.97;3.07;;;;;;;11.70;85.65;100530.25;5004869;28;20232;-80
2021/09/14 05:55:24;;;;;;;4.00;2.83;;;;;;;11.61;85.88;100510.38;5007891;28;20211;-80
2021/09/14 05:57:51;;;;;;;3.90;3.27;;;;;;;11.66;86.03;100494.63;5007372;28;20702;-78
2021/09/14 06:00:18;;;;;;;5.03;4.60;;;;;;;11.71;86.74;100496.22;5005814;28;20223;-79
2021/09/14 06:02:44;;;;;;;4.97;4.57;;;;;;;11.79;87.29;100477.72;5005973;28;20228;-79
2021/09/14 06:05:10;;;;;;;4.97;3.87;;;;;;;11.81;88.26;100456.78;5007889;28;20212;-77
2021/09/14 06:07:37;;;;;;;6.90;4.40;;;;;;;11.80;88.52;100450.69;5005559;28;20209;-79
2021/09/14 06:10:05;;;;;;;5.47;4.03;;;;;;;11.81;88.84;100447.16;5006837;28;20208;-79
2021/09/14 06:12:32;;;;;;;4.40;4.00;;;;;;;11.85;89.21;100435.75;5006821;28;20228;-79
2021/09/14 06:14:58;;;;;;;5.43;4.00;;;;;;;11.92;89.07;100428.66;5005435;28;20265;-79
2021/09/14 06:17:24;;;;;;;4.20;3.90;;;;;;;11.97;88.92;100433.75;5008788;28;20208;-81
2021/09/14 06:19:51;;;;;;;4.07;3.77;;;;;;;12.02;88.45;100447.59;5011806;28;20231;-81
2021/09/14 06:22:20;;;;;;;4.77;4.07;;;;;;;12.01;89.56;100433.66;5008282;28;20231;-80
2021/09/14 06:24:46;;;;;;;5.17;4.50;;;;;;;12.06;89.72;100423.06;5005942;28;20212;-81
2021/09/14 06:27:14;;;;;;;6.00;4.67;;;;;;;12.14;89.16;100423.72;5004773;28;20209;-81
2021/09/14 06:29:40;;;;;;;6.43;5.83;;;;;;;12.22;89.77;100418.31;5000791;28;20235;-81
2021/09/14 06:32:08;;;;;;;6.37;5.80;;;;;;;12.07;91.34;100390.75;5000745;28;20267;-75
2021/09/14 06:34:35;;;;;;;6.20;5.60;;;;;;;11.78;92.91;100340.03;5001469;28;20211;-77
2021/09/14 06:37:01;;;;;;;5.17;4.70;;;;;;;11.72;93.56;100312.28;5000720;28;20585;-77
2021/09/14 06:39:28;;;;;;;5.60;5.20;;;;;;;11.53;93.88;100306.69;5000877;28;20286;-79
2021/09/14 06:41:54;;;;;;;5.27;4.87;;;;;;;11.43;94.52;100291.25;5002749;28;20230;-78
2021/09/14 06:44:22;;;;;;;5.07;4.63;;;;;;;11.63;93.73;100290.75;4999258;28;20216;-79
2021/09/14 06:46:49;;;;;;;5.10;4.57;;;;;;;11.78;94.01;100292.97;5002329;28;20212;-77
2021/09/14 06:49:16;;;;;;;5.97;5.50;;;;;;;11.87;93.87;100290.13;5001986;28;20204;-78
2021/09/14 06:51:42;;;;;;;7.33;6.67;;;;;;;12.05;93.46;100291.41;5002492;28;20648;-78
2021/09/14 06:54:09;;;;;;;11.00;6.77;;;;;;;12.18;93.46;100288.44;5003851;28;20205;-78
2021/09/14 06:56:36;;;;;;;8.87;7.63;;;;;;;12.24;93.52;100288.25;5007433;28;20987;-77
2021/09/14 06:59:02;;;;;;;6.80;6.20;;;;;;;12.27;93.58;100286.44;5008419;28;20597;-79
2021/09/14 07:01:30;;;;;;;7.50;6.10;;;;;;;12.39;93.71;100292.19;5007334;28;20283;-80
2021/09/14 07:03:57;;;;;;;6.00;5.50;;;;;;;12.46;93.04;100296.34;5007472;28;20220;-77
2021/09/14 07:06:24;;;;;;;8.00;5.30;;;;;;;12.55;93.08;100306.56;5007314;28;20205;-78
2021/09/14 07:08:50;;;;;;;5.90;5.40;;;;;;;12.52;92.50;100315.34;5005194;28;20288;-79
2021/09/14 07:11:17;;;;;;;5.70;5.13;;;;;;;12.59;92.96;100313.44;5004587;28;20721;-76
2021/09/14 07:13:43;;;;;;;5.53;4.63;;;;;;;12.46;92.94;100312.91;5006337;28;20501;-79
2021/09/14 07:16:09;;;;;;;7.23;6.63;;;;;;;12.44;94.37;100283.31;5005851;28;20208;-80
2021/09/14 07:18:39;;;;;;;5.77;5.33;;;;;;;12.44;95.39;100251.88;5005389;28;20243;-79
2021/09/14 07:21:05;;;;;;;10.77;9.83;;;;;;;12.49;97.02;100217.75;5007267;28;20212;-78
2021/09/14 07:23:32;;;;;;;8.00;6.67;;;;;;;12.67;97.23;100208.47;5003341;28;20890;-76
2021/09/14 07:25:58;;;;;;;9.37;6.53;;;;;;;12.77;97.21;100209.03;5004678;28;20212;-79
2021/09/14 07:28:24;;;;;;;7.00;6.27;;;;;;;12.80;97.03;100216.78;5004239;28;20464;-77
2021/09/14 07:30:51;;;;;;;8.53;7.80;;;;;;;12.92;97.28;100208.50;5004455;28;20286;-79
2021/09/14 07:33:18;;;;;;;11.23;8.70;;;;;;;13.01;97.34;100207.38;5006489;28;20337;-78
2021/09/14 07:35:47;;;;;;;9.47;8.67;;;;;;;13.22;97.55;100205.78;5006441;28;20579;-78
2021/09/14 07:38:13;;;;;;;8.13;7.43;;;;;;;13.23;97.44;100218.00;5006628;28;20204;-78
2021/09/14 07:40:40;;;;;;;7.70;6.97;;;;;;;13.38;96.72;100224.50;5004893;28;20291;-80
2021/09/14 07:43:06;;;;;;;11.20;7.83;;;;;;;13.39;96.60;100237.56;5004282;28;20232;-79
2021/09/14 07:45:33;;;;;;;8.50;7.73;;;;;;;13.43;96.59;100233.94;5005431;28;20437;-77
2021/09/14 07:47:59;;;;;;;9.97;7.73;;;;;;;13.65;97.45;100220.09;5004028;28;20209;-78
2021/09/14 07:50:26;;;;;;;7.87;7.13;;;;;;;13.76;97.78;100219.72;5002520;28;20784;-80
2021/09/14 07:52:53;;;;;;;7.97;7.27;;;;;;;13.83;96.86;100235.16;5003388;28;20780;-76
2021/09/14 07:55:20;;;;;;;7.20;6.47;;;;;;;13.93;96.67;100240.09;5004389;28;20243;-77
2021/09/14 07:57:46;;;;;;;8.17;7.40;;;;;;;13.96;96.39;100245.25;5005427;28;20213;-80
2021/09/14 08:00:13;;;;;;;7.47;6.83;;;;;;;14.06;95.76;100265.00;5005329;28;20676;-79
2021/09/14 08:02:40;;;;;;;8.57;7.37;;;;;;;14.14;95.47;100267.34;5003536;28;20297;-76
2021/09/14 08:05:07;;;;;;;8.13;6.90;;;;;;;14.24;96.14;100268.72;5002685;28;20578;-77
2021/09/14 08:07:34;;;;;;;8.20;6.27;;;;;;;14.34;93.88;100306.00;5005673;28;20625;-79
2021/09/14 08:10:01;;;;;;;7.50;6.90;;;;;;;14.43;92.84;100350.28;5003725;28;20631;-79
2021/09/14 08:12:28;;;;;;;8.53;7.67;;;;;;;14.48;92.92;100358.84;5004921;28;20658;-78
2021/09/14 08:14:54;;;;;;;8.17;7.50;;;;;;;14.55;92.53;100372.63;5004847;28;20271;-77
2021/09/14 08:17:20;;;;;;;7.83;7.00;;;;;;;14.65;90.93;100402.94;5003242;28;20472;-77
2021/09/14 08:19:48;;;;;;;6.50;5.90;;;;;;;14.71;92.10;100386.97;5004004;28;20240;-79
2021/09/14 08:22:14;;;;;;;7.47;6.83;;;;;;;14.78;92.99;100359.53;5004074;28;20237;-79
2021/09/14 08:24:41;;;;;;;9.27;8.33;;;;;;;14.83;91.18;100396.16;5003624;28;20220;-77
2021/09/14 08:27:08;;;;;;;11.30;9.13;;;;;;;14.89;91.13;100407.28;5005593;28;20637;-79
2021/09/14 08:29:35;;;;;;;10.20;8.93;;;;;;;14.97;89.99;100443.81;5005413;28;20201;-78
2021/09/14 08:32:01;;;;;;;9.73;8.93;;;;;;;15.05;89.33;100467.19;5004817;28;20649;-80
2021/09/14 08:34:27;;;;;;;10.80;10.00;;;;;;;15.12;89.18;100470.44;5003667;28;20258;-76
2021/09/14 08:36:54;;;;;;;11.20;10.00;;;;;;;15.13;91.08;100420.44;5007141;28;20213;-80
2021/09/14 08:39:20;;;;;;;11.67;10.43;;;;;;;15.19;92.18;100378.13;5005577;28;20225;-80
2021/09/14 08:41:47;;;;;;;9.83;9.03;;;;;;;15.25;92.02;100374.41;5006171;28;20228;-77
2021/09/14 08:44:15;;;;;;;11.50;9.73;;;;;;;15.31;91.27;100404.84;5005578;28;20767;-79
2021/09/14 08:46:43;;;;;;;13.23;9.67;;;;;;;15.37;91.67;100391.47;5003000;28;20766;-78
2021/09/14 08:49:11;;;;;;;11.27;10.27;;;;;;;15.46;89.65;100444.56;5003376;28;20203;-78
2021/09/14 08:51:37;;;;;;;12.20;11.00;;;;;;;15.47;90.96;100416.47;5002025;28;20292;-79
2021/09/14 08:54:04;;;;;;;10.83;10.03;;;;;;;15.52;91.16;100411.91;5002413;28;20702;-78
2021/09/14 08:56:30;;;;;;;11.37;10.37;;;;;;;15.59;92.51;100368.63;5002385;28;20580;-77
2021/09/14 08:58:57;;;;;;;10.10;9.30;;;;;;;15.70;91.63;100378.72;5003183;28;20216;-78
2021/09/14 09:01:25;;;;;;;10.07;9.27;;;;;;;15.74;91.81;100397.88;5001775;28;20620;-77
2021/09/14 09:03:57;;;;;;;11.00;9.87;;;;;;;15.80;92.03;100368.72;5004393;28;20757;-80
2021/09/14 09:06:31;;;;;;;10.53;9.73;;;;;;;15.88;90.45;100409.56;5006682;28;20211;-79
2021/09/14 09:09:08;;;;;;;9.97;9.17;;;;;;;15.95;92.00;100383.84;5004686;28;20209;-78
2021/09/14 09:11:35;;;;;;;8.20;7.50;;;;;;;16.01;90.65;100419.59;5003990;28;20288;-77
2021/09/14 09:14:04;;;;;;;10.50;9.37;;;;;;;16.08;90.58;100423.69;5005090;28;20229;-78
2021/09/14 09:16:32;;;;;;;8.53;7.83;;;;;;;16.18;91.51;100400.47;5003486;28;20221;-78
2021/09/14 09:19:00;;;;;;;9.83;9.07;;;;;;;16.26;89.51;100451.03;5003791;28;20267;-78
2021/09/14 09:21:28;;;;;;;8.13;7.53;;;;;;;16.38;91.17;100418.88;5004940;28;20659;-78
2021/09/14 09:23:56;;;;;;;9.43;8.67;;;;;;;16.51;91.40;100389.34;5002540;28;20213;-79
2021/09/14 09:26:30;;;;;;;9.50;8.70;;;;;;;16.56;90.96;100413.75;5006889;28;20207;-75
2021/09/14 09:28:59;;;;;;;10.43;9.50;;;;;;;16.60;90.92;100412.69;5004110;28;20211;-78
2021/09/14 09:31:25;;;;;;;9.73;8.83;;;;;;;16.68;90.72;100416.66;5003047;28;20249;-75
2021/09/14 09:34:02;;;;;;;9.50;8.80;;;;;;;16.79;88.78;100470.72;5004724;28;20260;-77
2021/09/14 09:36:30;;;;;;;10.57;8.30;;;;;;;16.85;88.23;100508.22;5006161;28;20592;-77
2021/09/14 09:38:58;;;;;;;9.17;8.53;;;;;;;16.92;89.13;100476.31;5004343;28;20221;-78
2021/09/14 09:41:24;;;;;;;9.33;8.63;;;;;;;16.97;88.29;100491.00;5002675;28;20257;-77
2021/09/14 09:43:51;;;;;;;9.00;8.30;;;;;;;17.04;88.27;100494.22;5003461;28;20213;-76
2021/09/14 09:46:20;;;;;;;8.20;7.70;;;;;;;17.15;87.93;100499.88;5002591;28;20257;-76
2021/09/14 09:48:47;;;;;;;10.63;9.63;;;;;;;17.25;87.54;100514.34;5003174;28;20203;-77
2021/09/14 09:51:15;;;;;;;10.83;8.97;;;;;;;17.33;86.48;100550.09;5002652;28;20207;-79
2021/09/14 09:53:41;;;;;;;9.57;8.77;;;;;;;17.37;87.11;100523.50;5002800;28;20218;-78
2021/09/14 09:56:08;;;;;;;9.73;8.80;;;;;;;17.49;85.73;100544.97;5002798;28;20270;-74
2021/09/14 09:58:35;;;;;;;9.40;8.80;;;;;;;17.49;86.34;100540.56;5003567;28;20210;-76
2021/09/14 10:01:08;;;;;;;9.77;9.07;;;;;;;17.55;85.89;100544.69;5002726;28;20586;-78
2021/09/14 10:03:40;;;;;;;10.50;9.70;;;;;;;17.65;86.53;100525.69;5002263;28;20219;-79
2021/09/14 10:06:09;;;;;;;9.50;8.90;;;;;;;17.70;85.22;100551.91;5002945;28;20257;-76
2021/09/14 10:08:38;;;;;;;10.60;9.67;;;;;;;17.79;85.52;100554.09;5003575;28;20214;-76
2021/09/14 10:11:04;;;;;;;10.10;9.30;;;;;;;17.91;83.95;100589.66;5002173;28;20218;-78
2021/09/14 10:13:33;;;;;;;8.87;8.20;;;;;;;17.96;84.20;100584.19;5001980;28;20866;-76
2021/09/14 10:16:00;;;;;;;9.27;8.67;;;;;;;17.99;84.48;100574.31;5001825;28;20206;-77
2021/09/14 10:18:28;;;;;;;9.93;9.13;;;;;;;18.08;84.33;100575.66;5002611;28;20215;-76
2021/09/14 10:20:54;;;;;;;9.67;8.90;;;;;;;18.17;83.21;100606.91;5002545;28;20240;-78
2021/09/14 10:23:23;;;;;;;9.63;8.83;;;;;;;18.26;82.44;100645.28;5003273;28;20281;-77
2021/09/14 10:26:02;;;;;;;9.03;8.23;;;;;;;18.29;81.99;100644.25;5001735;28;20679;-78
2021/09/14 10:28:41;;;;;;;9.60;8.80;;;;;;;18.35;82.27;100626.31;5003267;28;20215;-78
2021/09/14 10:31:19;;;;;;;8.30;7.70;;;;;;;18.46;81.68;100646.97;5006531;28;20206;-78
2021/09/14 10:33:45;;;;;;;8.70;7.90;;;;;;;18.52;80.92;100678.38;5005377;28;20261;-78
2021/09/14 10:36:13;;;;;;;9.43;8.63;;;;;;;18.66;81.72;100657.41;5007405;28;20204;-76
2021/09/14 10:38:49;;;;;;;8.90;8.20;;;;;;;18.81;80.84;100662.88;5005459;28;20215;-78
2021/09/14 10:41:18;;;;;;;8.90;8.20;;;;;;;18.88;80.01;100700.50;5004452;28;20625;-77
2021/09/14 10:43:55;;;;;;;8.67;8.07;;;;;;;18.96;79.53;100716.84;5005573;28;20457;-76
2021/09/14 10:46:22;;;;;;;7.97;7.33;;;;;;;19.03;78.34;100750.00;5006446;28;20210;-78
2021/09/14 10:48:49;;;;;;;8.13;7.63;;;;;;;19.08;78.12;100755.91;5006259;28;20219;-76
2021/09/14 10:51:17;;;;;;;7.93;7.33;;;;;;;19.22;77.59;100773.75;5006578;28;20223;-78
2021/09/14 10:53:54;;;;;;;8.60;7.87;;;;;;;19.34;78.95;100744.00;5006669;28;20217;-78
2021/09/14 10:56:22;;;;;;;7.37;6.77;;;;;;;19.43;78.82;100732.97;5005875;28;20219;-78
2021/09/14 10:58:49;;;;;;;8.30;7.67;;;;;;;19.56;80.21;100680.25;5005549;28;20208;-76
2021/09/14 11:01:22;;;;;;;8.63;8.03;;;;;;;19.70;77.73;100761.63;5004254;28;20230;-76
2021/09/14 11:03:50;;;;;;;7.97;7.47;;;;;;;19.90;76.29;100805.66;5006144;28;20222;-77
2021/09/14 11:06:17;;;;;;;7.10;6.40;;;;;;;20.00;74.95;100859.88;5006134;28;20213;-77
2021/09/14 11:08:45;;;;;;;9.07;7.33;;;;;;;20.18;74.57;100859.88;5007367;28;20240;-79
2021/09/14 11:11:17;;;;;;;11.33;7.03;;;;;;;20.35;74.88;100854.50;5004894;28;20210;-80
2021/09/14 11:13:45;;;;;;;7.43;6.90;;;;;;;20.59;75.93;100799.34;5006213;28;20212;-77
2021/09/14 11:16:16;;;;;;;6.70;6.30;;;;;;;20.82;75.13;100827.25;5005260;28;20676;-78
2021/09/14 11:18:42;;;;;;;7.03;6.53;;;;;;;21.04;74.18;100852.59;5005222;28;20218;-76
2021/09/14 11:21:11;;;;;;;6.93;6.33;;;;;;;21.29;72.21;100933.50;5004368;28;20232;-78
2021/09/14 11:23:39;;;;;;;6.70;6.10;;;;;;;21.55;70.23;100978.09;5005803;28;20268;-77
2021/09/14 11:26:08;;;;;;;7.20;6.60;;;;;;;21.80;68.94;101051.97;5004857;28;20778;-76
2021/09/14 11:28:35;;;;;;;5.93;5.53;;;;;;;22.38;66.46;101132.94;5005568;28;20294;-77
2021/09/14 11:31:05;;;;;;;6.00;5.60;;;;;;;23.72;63.52;101230.69;5010171;28;20205;-78
2021/09/14 11:33:32;;;;;;;6.30;5.90;;;;;;;25.22;58.76;101411.75;5010781;28;20249;-79
2021/09/14 11:36:00;;;;;;;5.87;5.47;;;;;;;26.79;52.46;101632.31;5010709;28;20207;-78
2021/09/14 11:38:27;;;;;;;5.47;5.03;;;;;;;27.91;52.01;101663.84;5009498;28;20246;-79
2021/09/14 11:40:56;;;;;;;5.80;5.40;;;;;;;29.05;48.22;101744.03;5006279;28;20642;-79
2021/09/14 11:43:24;;;;;;;5.90;5.50;;;;;;;30.11;45.96;101789.63;5005111;28;20235;-78
2021/09/14 11:45:52;;;;;;;5.23;4.77;;;;;;;31.04;42.87;101897.06;5008375;28;20215;-77
2021/09/14 11:48:25;;;;;;;5.47;5.13;;;;;;;31.64;39.84;101929.84;5007678;28;20207;-80
2021/09/14 11:51:02;;;;;;;5.47;5.17;;;;;;;32.18;39.57;101956.81;4315590;28;10000749;-78
2021/09/14 11:53:29;;;;;;;5.40;4.90;;;;;;;33.17;37.71;101979.59;5004837;28;20207;-78
2021/09/14 11:55:55;;;;;;;4.97;4.57;;;;;;;33.89;35.31;102022.72;5004822;28;20211;-80
2021/09/14 11:58:29;;;;;;;5.60;5.20;;;;;;;34.31;34.12;102063.94;5005885;28;20214;-81
2021/09/14 12:00:58;;;;;;;4.90;4.60;;;;;;;35.03;31.36;102110.44;5006478;28;20285;-81
2021/09/14 12:03:35;;;;;;;4.77;4.57;;;;;;;35.42;33.09;101996.19;5005428;28;20233;-81
2021/09/14 12:06:01;;;;;;;4.67;4.07;;;;;;;35.76;31.42;102030.88;5007200;28;20213;-79
2021/09/14 12:08:29;;;;;;;5.03;4.73;;;;;;;35.89;30.01;102061.19;5005858;28;20206;-79
2021/09/14 12:10:56;;;;;;;6.60;5.00;;;;;;;35.58;30.59;102012.66;5005663;28;20238;-78